sensor_id;sensor_type;location;lat;lon;timestamp;temperature;humidity
17687;DHT22;8962;52.538;13.266;2023-04-24T00:01:55;12.50;99.90
17687;DHT22;8962;52.538;13.266;2023-04-24T00:04:23;12.50;99.90
17687;DHT22;8962;52.538;13.266;2023-04-24T00:06:51;12.50;99.90
17687;DHT22;8962;52.538;13.266;2023-04-24T00:09:23;12.50;99.90
17687;DHT22;8962;52.538;13.266;2023-04-24T00:11:50;12.50;99.90
17687;DHT22;8962;52.538;13.266;2023-04-24T00:14:18;12.40;99.90
17687;DHT22;8962;52.538;13.266;2023-04-24T00:16:45;12.40;99.90
17687;DHT22;8962;52.538;13.266;2023-04-24T00:19:13;12.30;99.90
17687;DHT22;8962;52.538;13.266;2023-04-24T00:21:40;12.30;99.90
17687;DHT22;8962;52.538;13.266;2023-04-24T00:24:07;12.30;99.90
17687;DHT22;8962;52.538;13.266;2023-04-24T00:26:35;12.40;99.90
17687;DHT22;8962;52.538;13.266;2023-04-24T00:29:02;12.40;99.90
17687;DHT22;8962;52.538;13.266;2023-04-24T00:31:30;12.30;99.90
17687;DHT22;8962;52.538;13.266;2023-04-24T00:33:58;12.30;99.90
17687;DHT22;8962;52.538;13.266;2023-04-24T00:36:26;12.30;99.90
17687;DHT22;8962;52.538;13.266;2023-04-24T00:38:53;12.20;99.90
17687;DHT22;8962;52.538;13.266;2023-04-24T00:41:21;12.20;99.90
17687;DHT22;8962;52.538;13.266;2023-04-24T00:43:48;12.20;99.90
17687;DHT22;8962;52.538;13.266;2023-04-24T00:46:16;12.30;99.90
17687;DHT22;8962;52.538;13.266;2023-04-24T00:48:44;12.20;99.90
17687;DHT22;8962;52.538;13.266;2023-04-24T00:51:12;12.30;99.90
17687;DHT22;8962;52.538;13.266;2023-04-24T00:53:41;12.30;99.90
17687;DHT22;8962;52.538;13.266;2023-04-24T00:56:08;12.30;99.90
17687;DHT22;8962;52.538;13.266;2023-04-24T00:58:35;12.30;99.90
17687;DHT22;8962;52.538;13.266;2023-04-24T01:01:03;12.40;99.90
17687;DHT22;8962;52.538;13.266;2023-04-24T01:03:34;12.40;99.90
17687;DHT22;8962;52.538;13.266;2023-04-24T01:06:03;12.40;99.90
17687;DHT22;8962;52.538;13.266;2023-04-24T01:08:31;12.50;99.90
17687;DHT22;8962;52.538;13.266;2023-04-24T01:11:03;12.60;99.90
17687;DHT22;8962;52.538;13.266;2023-04-24T01:13:31;12.60;99.90
17687;DHT22;8962;52.538;13.266;2023-04-24T01:15:58;12.70;99.90
17687;DHT22;8962;52.538;13.266;2023-04-24T01:18:26;12.70;99.90
17687;DHT22;8962;52.538;13.266;2023-04-24T01:20:57;12.80;99.90
17687;DHT22;8962;52.538;13.266;2023-04-24T01:23:26;12.80;99.90
17687;DHT22;8962;52.538;13.266;2023-04-24T01:25:55;12.80;99.90
17687;DHT22;8962;52.538;13.266;2023-04-24T01:28:22;12.90;99.90
17687;DHT22;8962;52.538;13.266;2023-04-24T01:30:51;12.90;99.90
17687;DHT22;8962;52.538;13.266;2023-04-24T01:33:22;12.90;99.90
17687;DHT22;8962;52.538;13.266;2023-04-24T01:35:49;12.90;99.90
17687;DHT22;8962;52.538;13.266;2023-04-24T01:38:16;12.90;99.90
17687;DHT22;8962;52.538;13.266;2023-04-24T01:40:45;12.90;99.90
17687;DHT22;8962;52.538;13.266;2023-04-24T01:43:13;12.80;99.90
17687;DHT22;8962;52.538;13.266;2023-04-24T01:45:40;12.80;99.90
17687;DHT22;8962;52.538;13.266;2023-04-24T01:48:08;12.80;99.90
17687;DHT22;8962;52.538;13.266;2023-04-24T01:50:35;12.70;99.90
17687;DHT22;8962;52.538;13.266;2023-04-24T01:53:03;12.70;99.90
17687;DHT22;8962;52.538;13.266;2023-04-24T01:55:30;12.60;99.90
17687;DHT22;8962;52.538;13.266;2023-04-24T01:57:59;12.50;99.90
17687;DHT22;8962;52.538;13.266;2023-04-24T02:00:28;12.50;99.90
17687;DHT22;8962;52.538;13.266;2023-04-24T02:02:55;12.50;99.90
17687;DHT22;8962;52.538;13.266;2023-04-24T02:05:25;12.40;99.90
17687;DHT22;8962;52.538;13.266;2023-04-24T02:07:52;12.40;99.90
17687;DHT22;8962;52.538;13.266;2023-04-24T02:10:19;12.30;99.90
17687;DHT22;8962;52.538;13.266;2023-04-24T02:12:46;12.30;99.90
17687;DHT22;8962;52.538;13.266;2023-04-24T02:15:16;12.30;99.90
17687;DHT22;8962;52.538;13.266;2023-04-24T02:17:43;12.30;99.90
17687;DHT22;8962;52.538;13.266;2023-04-24T02:20:10;12.30;99.90
17687;DHT22;8962;52.538;13.266;2023-04-24T02:22:38;12.30;99.90
17687;DHT22;8962;52.538;13.266;2023-04-24T02:25:05;12.30;99.90
17687;DHT22;8962;52.538;13.266;2023-04-24T02:27:33;12.30;99.90
17687;DHT22;8962;52.538;13.266;2023-04-24T02:30:00;12.30;99.90
17687;DHT22;8962;52.538;13.266;2023-04-24T02:32:30;12.30;99.90
17687;DHT22;8962;52.538;13.266;2023-04-24T02:34:57;12.30;99.90
17687;DHT22;8962;52.538;13.266;2023-04-24T02:37:24;12.20;99.90
17687;DHT22;8962;52.538;13.266;2023-04-24T02:39:52;12.20;99.90
17687;DHT22;8962;52.538;13.266;2023-04-24T02:42:19;12.20;99.90
17687;DHT22;8962;52.538;13.266;2023-04-24T02:44:48;12.20;99.90
17687;DHT22;8962;52.538;13.266;2023-04-24T02:47:17;12.20;99.90
17687;DHT22;8962;52.538;13.266;2023-04-24T02:49:46;12.20;99.90
17687;DHT22;8962;52.538;13.266;2023-04-24T02:52:14;12.20;99.90
17687;DHT22;8962;52.538;13.266;2023-04-24T02:54:42;12.20;99.90
17687;DHT22;8962;52.538;13.266;2023-04-24T02:57:10;12.20;99.90
17687;DHT22;8962;52.538;13.266;2023-04-24T02:59:41;12.20;99.90
17687;DHT22;8962;52.538;13.266;2023-04-24T03:02:08;12.30;99.90
17687;DHT22;8962;52.538;13.266;2023-04-24T03:04:35;12.30;99.90
17687;DHT22;8962;52.538;13.266;2023-04-24T03:07:05;12.30;99.90
17687;DHT22;8962;52.538;13.266;2023-04-24T03:09:33;12.30;99.90
17687;DHT22;8962;52.538;13.266;2023-04-24T03:12:01;12.30;99.90
17687;DHT22;8962;52.538;13.266;2023-04-24T03:14:28;12.30;99.90
17687;DHT22;8962;52.538;13.266;2023-04-24T03:16:56;12.30;99.90
17687;DHT22;8962;52.538;13.266;2023-04-24T03:19:24;12.30;99.90
17687;DHT22;8962;52.538;13.266;2023-04-24T03:22:05;12.30;99.90
17687;DHT22;8962;52.538;13.266;2023-04-24T03:24:35;12.30;99.90
17687;DHT22;8962;52.538;13.266;2023-04-24T03:27:02;12.30;99.90
17687;DHT22;8962;52.538;13.266;2023-04-24T03:30:02;12.30;99.90
17687;DHT22;8962;52.538;13.266;2023-04-24T03:32:46;12.30;99.90
17687;DHT22;8962;52.538;13.266;2023-04-24T03:35:18;12.30;99.90
17687;DHT22;8962;52.538;13.266;2023-04-24T03:37:50;12.30;99.90
17687;DHT22;8962;52.538;13.266;2023-04-24T03:40:43;12.30;99.90
17687;DHT22;8962;52.538;13.266;2023-04-24T03:43:27;12.30;99.90
17687;DHT22;8962;52.538;13.266;2023-04-24T03:45:58;12.30;99.90
17687;DHT22;8962;52.538;13.266;2023-04-24T03:48:26;12.30;99.90
17687;DHT22;8962;52.538;13.266;2023-04-24T03:50:54;12.30;99.90
17687;DHT22;8962;52.538;13.266;2023-04-24T03:53:23;12.30;99.90
17687;DHT22;8962;52.538;13.266;2023-04-24T03:55:53;12.30;99.90
17687;DHT22;8962;52.538;13.266;2023-04-24T03:58:22;12.30;99.90
17687;DHT22;8962;52.538;13.266;2023-04-24T04:00:51;12.30;99.90
17687;DHT22;8962;52.538;13.266;2023-04-24T04:03:43;12.30;99.90
17687;DHT22;8962;52.538;13.266;2023-04-24T04:06:11;12.30;99.90
17687;DHT22;8962;52.538;13.266;2023-04-24T04:08:40;12.30;99.90
17687;DHT22;8962;52.538;13.266;2023-04-24T04:11:10;12.30;99.90
17687;DHT22;8962;52.538;13.266;2023-04-24T04:13:37;12.30;99.90
17687;DHT22;8962;52.538;13.266;2023-04-24T04:16:05;12.30;99.90
17687;DHT22;8962;52.538;13.266;2023-04-24T04:18:33;12.20;99.90
17687;DHT22;8962;52.538;13.266;2023-04-24T04:21:01;12.20;99.90
17687;DHT22;8962;52.538;13.266;2023-04-24T04:23:29;12.20;99.90
17687;DHT22;8962;52.538;13.266;2023-04-24T04:26:13;12.20;99.90
17687;DHT22;8962;52.538;13.266;2023-04-24T04:28:57;12.20;99.90
17687;DHT22;8962;52.538;13.266;2023-04-24T04:31:35;12.20;99.90
17687;DHT22;8962;52.538;13.266;2023-04-24T04:34:08;12.20;99.90
17687;DHT22;8962;52.538;13.266;2023-04-24T04:36:35;12.20;99.90
17687;DHT22;8962;52.538;13.266;2023-04-24T04:39:19;12.20;99.90
17687;DHT22;8962;52.538;13.266;2023-04-24T04:41:57;12.20;99.90
17687;DHT22;8962;52.538;13.266;2023-04-24T04:44:33;12.20;99.90
17687;DHT22;8962;52.538;13.266;2023-04-24T04:47:03;12.20;99.90
17687;DHT22;8962;52.538;13.266;2023-04-24T04:49:33;12.30;99.90
17687;DHT22;8962;52.538;13.266;2023-04-24T04:52:01;12.30;99.90
17687;DHT22;8962;52.538;13.266;2023-04-24T04:54:28;12.30;99.90
17687;DHT22;8962;52.538;13.266;2023-04-24T04:56:58;12.30;99.90
17687;DHT22;8962;52.538;13.266;2023-04-24T04:59:27;12.40;99.90
17687;DHT22;8962;52.538;13.266;2023-04-24T05:02:03;12.40;99.90
17687;DHT22;8962;52.538;13.266;2023-04-24T05:04:31;12.40;99.90
17687;DHT22;8962;52.538;13.266;2023-04-24T05:06:59;12.60;99.90
17687;DHT22;8962;52.538;13.266;2023-04-24T05:09:29;12.60;99.90
17687;DHT22;8962;52.538;13.266;2023-04-24T05:12:03;12.60;99.90
17687;DHT22;8962;52.538;13.266;2023-04-24T05:14:37;12.70;99.90
17687;DHT22;8962;52.538;13.266;2023-04-24T05:17:10;12.70;99.90
17687;DHT22;8962;52.538;13.266;2023-04-24T05:19:37;12.70;99.90
17687;DHT22;8962;52.538;13.266;2023-04-24T05:22:07;12.70;99.90
17687;DHT22;8962;52.538;13.266;2023-04-24T05:24:43;12.70;99.90
17687;DHT22;8962;52.538;13.266;2023-04-24T05:27:23;12.70;99.90
17687;DHT22;8962;52.538;13.266;2023-04-24T05:29:50;12.70;99.90
17687;DHT22;8962;52.538;13.266;2023-04-24T05:32:18;12.80;99.90
17687;DHT22;8962;52.538;13.266;2023-04-24T05:34:46;12.70;99.90
17687;DHT22;8962;52.538;13.266;2023-04-24T05:37:13;12.70;99.90
17687;DHT22;8962;52.538;13.266;2023-04-24T05:39:42;12.70;99.90
17687;DHT22;8962;52.538;13.266;2023-04-24T05:42:09;12.70;99.90
17687;DHT22;8962;52.538;13.266;2023-04-24T05:44:38;12.80;99.90
17687;DHT22;8962;52.538;13.266;2023-04-24T05:47:05;12.80;99.90
17687;DHT22;8962;52.538;13.266;2023-04-24T05:49:32;12.80;99.90
17687;DHT22;8962;52.538;13.266;2023-04-24T05:52:00;12.80;99.90
17687;DHT22;8962;52.538;13.266;2023-04-24T05:54:29;12.80;99.90
17687;DHT22;8962;52.538;13.266;2023-04-24T05:56:57;12.80;99.90
17687;DHT22;8962;52.538;13.266;2023-04-24T05:59:35;12.80;99.90
17687;DHT22;8962;52.538;13.266;2023-04-24T06:02:03;12.90;99.90
17687;DHT22;8962;52.538;13.266;2023-04-24T06:04:32;13.00;99.90
17687;DHT22;8962;52.538;13.266;2023-04-24T06:07:01;13.10;99.90
17687;DHT22;8962;52.538;13.266;2023-04-24T06:09:29;13.20;99.90
17687;DHT22;8962;52.538;13.266;2023-04-24T06:11:56;13.30;99.90
17687;DHT22;8962;52.538;13.266;2023-04-24T06:14:34;13.40;99.90
17687;DHT22;8962;52.538;13.266;2023-04-24T06:17:19;13.50;99.90
17687;DHT22;8962;52.538;13.266;2023-04-24T06:19:47;13.60;99.90
17687;DHT22;8962;52.538;13.266;2023-04-24T06:22:15;13.70;99.90
17687;DHT22;8962;52.538;13.266;2023-04-24T06:24:44;13.80;99.90
17687;DHT22;8962;52.538;13.266;2023-04-24T06:27:12;13.90;99.90
17687;DHT22;8962;52.538;13.266;2023-04-24T06:29:40;14.00;99.90
17687;DHT22;8962;52.538;13.266;2023-04-24T06:32:07;14.10;99.90
17687;DHT22;8962;52.538;13.266;2023-04-24T06:34:41;14.30;99.90
17687;DHT22;8962;52.538;13.266;2023-04-24T06:37:10;14.40;99.90
17687;DHT22;8962;52.538;13.266;2023-04-24T06:39:41;14.60;99.90
17687;DHT22;8962;52.538;13.266;2023-04-24T06:42:11;14.70;99.90
17687;DHT22;8962;52.538;13.266;2023-04-24T06:44:38;14.70;99.90
17687;DHT22;8962;52.538;13.266;2023-04-24T06:47:07;14.90;99.90
17687;DHT22;8962;52.538;13.266;2023-04-24T06:49:37;15.00;99.90
17687;DHT22;8962;52.538;13.266;2023-04-24T06:52:05;15.00;99.90
17687;DHT22;8962;52.538;13.266;2023-04-24T06:54:35;15.10;99.90
17687;DHT22;8962;52.538;13.266;2023-04-24T06:57:04;15.20;99.90
17687;DHT22;8962;52.538;13.266;2023-04-24T06:59:31;15.20;99.90
17687;DHT22;8962;52.538;13.266;2023-04-24T07:01:59;15.20;99.90
17687;DHT22;8962;52.538;13.266;2023-04-24T07:04:26;15.00;99.90
17687;DHT22;8962;52.538;13.266;2023-04-24T07:06:57;15.00;99.90
17687;DHT22;8962;52.538;13.266;2023-04-24T07:09:26;15.00;99.90
17687;DHT22;8962;52.538;13.266;2023-04-24T07:11:53;15.20;99.90
17687;DHT22;8962;52.538;13.266;2023-04-24T07:14:22;15.20;99.90
17687;DHT22;8962;52.538;13.266;2023-04-24T07:16:49;15.10;99.90
17687;DHT22;8962;52.538;13.266;2023-04-24T07:19:16;15.20;99.90
17687;DHT22;8962;52.538;13.266;2023-04-24T07:21:47;15.50;99.90
17687;DHT22;8962;52.538;13.266;2023-04-24T07:24:15;15.80;99.90
17687;DHT22;8962;52.538;13.266;2023-04-24T07:26:43;16.00;99.90
17687;DHT22;8962;52.538;13.266;2023-04-24T07:29:12;16.10;99.90
17687;DHT22;8962;52.538;13.266;2023-04-24T07:31:40;16.10;99.90
17687;DHT22;8962;52.538;13.266;2023-04-24T07:34:07;16.10;99.90
17687;DHT22;8962;52.538;13.266;2023-04-24T07:36:35;16.30;99.90
17687;DHT22;8962;52.538;13.266;2023-04-24T07:39:04;16.30;99.90
17687;DHT22;8962;52.538;13.266;2023-04-24T07:41:33;16.30;99.90
17687;DHT22;8962;52.538;13.266;2023-04-24T07:44:01;16.20;99.90
17687;DHT22;8962;52.538;13.266;2023-04-24T07:46:30;16.60;99.90
17687;DHT22;8962;52.538;13.266;2023-04-24T07:48:57;16.90;99.90
17687;DHT22;8962;52.538;13.266;2023-04-24T07:51:25;16.90;99.90
17687;DHT22;8962;52.538;13.266;2023-04-24T07:53:53;17.10;99.90
17687;DHT22;8962;52.538;13.266;2023-04-24T07:56:21;17.30;99.90
17687;DHT22;8962;52.538;13.266;2023-04-24T07:58:52;17.60;99.90
17687;DHT22;8962;52.538;13.266;2023-04-24T08:01:22;17.70;99.90
17687;DHT22;8962;52.538;13.266;2023-04-24T08:03:50;17.80;99.90
17687;DHT22;8962;52.538;13.266;2023-04-24T08:06:18;17.70;99.90
17687;DHT22;8962;52.538;13.266;2023-04-24T08:08:45;17.80;99.90
17687;DHT22;8962;52.538;13.266;2023-04-24T08:11:13;17.90;99.90
17687;DHT22;8962;52.538;13.266;2023-04-24T08:13:42;18.00;99.90
17687;DHT22;8962;52.538;13.266;2023-04-24T08:16:11;18.30;99.90
17687;DHT22;8962;52.538;13.266;2023-04-24T08:18:38;18.20;99.90
17687;DHT22;8962;52.538;13.266;2023-04-24T08:21:05;18.40;99.90
17687;DHT22;8962;52.538;13.266;2023-04-24T08:23:34;18.40;99.90
17687;DHT22;8962;52.538;13.266;2023-04-24T08:26:01;18.50;99.90
17687;DHT22;8962;52.538;13.266;2023-04-24T08:28:29;18.50;99.90
17687;DHT22;8962;52.538;13.266;2023-04-24T08:30:56;18.50;99.90
17687;DHT22;8962;52.538;13.266;2023-04-24T08:33:25;18.50;99.90
17687;DHT22;8962;52.538;13.266;2023-04-24T08:35:53;18.40;99.90
17687;DHT22;8962;52.538;13.266;2023-04-24T08:38:21;18.30;99.90
17687;DHT22;8962;52.538;13.266;2023-04-24T08:40:49;18.40;99.90
17687;DHT22;8962;52.538;13.266;2023-04-24T08:43:17;18.40;99.90
17687;DHT22;8962;52.538;13.266;2023-04-24T08:45:45;18.30;99.90
17687;DHT22;8962;52.538;13.266;2023-04-24T08:48:13;18.50;99.90
17687;DHT22;8962;52.538;13.266;2023-04-24T08:50:42;18.60;99.90
17687;DHT22;8962;52.538;13.266;2023-04-24T08:53:11;18.40;99.90
17687;DHT22;8962;52.538;13.266;2023-04-24T08:55:39;18.50;99.90
17687;DHT22;8962;52.538;13.266;2023-04-24T08:58:08;18.60;99.90
17687;DHT22;8962;52.538;13.266;2023-04-24T09:00:36;18.60;99.90
17687;DHT22;8962;52.538;13.266;2023-04-24T09:03:06;18.40;99.90
17687;DHT22;8962;52.538;13.266;2023-04-24T09:05:33;18.20;99.90
17687;DHT22;8962;52.538;13.266;2023-04-24T09:08:02;18.20;99.90
17687;DHT22;8962;52.538;13.266;2023-04-24T09:10:30;18.20;99.90
17687;DHT22;8962;52.538;13.266;2023-04-24T09:12:59;18.30;99.90
17687;DHT22;8962;52.538;13.266;2023-04-24T09:15:28;18.40;99.90
17687;DHT22;8962;52.538;13.266;2023-04-24T09:17:56;18.40;99.90
17687;DHT22;8962;52.538;13.266;2023-04-24T09:20:23;18.50;99.90
17687;DHT22;8962;52.538;13.266;2023-04-24T09:22:56;18.40;99.90
17687;DHT22;8962;52.538;13.266;2023-04-24T09:25:30;18.50;99.90
17687;DHT22;8962;52.538;13.266;2023-04-24T09:28:01;18.60;99.90
17687;DHT22;8962;52.538;13.266;2023-04-24T09:30:29;18.90;99.90
17687;DHT22;8962;52.538;13.266;2023-04-24T09:33:18;19.00;99.90
17687;DHT22;8962;52.538;13.266;2023-04-24T09:35:49;19.10;99.90
17687;DHT22;8962;52.538;13.266;2023-04-24T09:38:17;18.90;99.90
17687;DHT22;8962;52.538;13.266;2023-04-24T09:40:46;18.70;99.90
17687;DHT22;8962;52.538;13.266;2023-04-24T09:43:13;18.60;99.90
17687;DHT22;8962;52.538;13.266;2023-04-24T09:45:41;18.20;99.90
17687;DHT22;8962;52.538;13.266;2023-04-24T09:48:09;18.10;99.90
17687;DHT22;8962;52.538;13.266;2023-04-24T09:50:37;18.30;99.90
17687;DHT22;8962;52.538;13.266;2023-04-24T09:53:05;18.30;99.90
17687;DHT22;8962;52.538;13.266;2023-04-24T09:55:39;18.10;99.90
17687;DHT22;8962;52.538;13.266;2023-04-24T09:58:08;18.10;99.90
17687;DHT22;8962;52.538;13.266;2023-04-24T10:00:37;17.90;99.90
17687;DHT22;8962;52.538;13.266;2023-04-24T10:03:06;17.70;99.90
17687;DHT22;8962;52.538;13.266;2023-04-24T10:05:35;17.60;99.90
17687;DHT22;8962;52.538;13.266;2023-04-24T10:08:04;17.90;99.90
17687;DHT22;8962;52.538;13.266;2023-04-24T10:10:33;18.50;99.90
17687;DHT22;8962;52.538;13.266;2023-04-24T10:13:02;19.00;99.90
17687;DHT22;8962;52.538;13.266;2023-04-24T10:15:32;18.80;99.90
17687;DHT22;8962;52.538;13.266;2023-04-24T10:18:05;18.50;99.90
17687;DHT22;8962;52.538;13.266;2023-04-24T10:20:35;18.40;99.90
17687;DHT22;8962;52.538;13.266;2023-04-24T10:23:04;18.50;99.90
17687;DHT22;8962;52.538;13.266;2023-04-24T10:25:33;18.40;99.90
17687;DHT22;8962;52.538;13.266;2023-04-24T10:28:02;18.50;99.90
17687;DHT22;8962;52.538;13.266;2023-04-24T10:30:32;18.20;99.90
17687;DHT22;8962;52.538;13.266;2023-04-24T10:33:02;18.10;99.90
17687;DHT22;8962;52.538;13.266;2023-04-24T10:35:35;17.70;99.90
17687;DHT22;8962;52.538;13.266;2023-04-24T10:38:06;17.40;99.90
17687;DHT22;8962;52.538;13.266;2023-04-24T10:40:35;17.20;99.90
17687;DHT22;8962;52.538;13.266;2023-04-24T10:43:04;17.10;99.90
17687;DHT22;8962;52.538;13.266;2023-04-24T10:45:35;16.90;99.90
17687;DHT22;8962;52.538;13.266;2023-04-24T10:48:04;16.80;99.90
17687;DHT22;8962;52.538;13.266;2023-04-24T10:50:45;16.70;99.90
17687;DHT22;8962;52.538;13.266;2023-04-24T10:53:13;17.00;99.90
17687;DHT22;8962;52.538;13.266;2023-04-24T10:55:43;17.20;99.90
17687;DHT22;8962;52.538;13.266;2023-04-24T10:58:11;17.70;99.90
17687;DHT22;8962;52.538;13.266;2023-04-24T11:00:41;18.00;99.90
17687;DHT22;8962;52.538;13.266;2023-04-24T11:03:23;18.20;99.90
17687;DHT22;8962;52.538;13.266;2023-04-24T11:05:59;18.50;99.90
17687;DHT22;8962;52.538;13.266;2023-04-24T11:08:32;18.70;99.90
17687;DHT22;8962;52.538;13.266;2023-04-24T11:11:02;18.80;99.90
17687;DHT22;8962;52.538;13.266;2023-04-24T11:14:01;18.70;99.90
17687;DHT22;8962;52.538;13.266;2023-04-24T11:16:32;18.80;99.90
17687;DHT22;8962;52.538;13.266;2023-04-24T11:19:02;18.60;99.90
17687;DHT22;8962;52.538;13.266;2023-04-24T11:21:40;18.70;99.90
17687;DHT22;8962;52.538;13.266;2023-04-24T11:24:28;18.60;99.90
17687;DHT22;8962;52.538;13.266;2023-04-24T11:26:59;18.60;99.90
17687;DHT22;8962;52.538;13.266;2023-04-24T11:29:41;18.60;99.90
17687;DHT22;8962;52.538;13.266;2023-04-24T11:32:26;18.60;99.90
17687;DHT22;8962;52.538;13.266;2023-04-24T11:34:54;18.40;99.90
17687;DHT22;8962;52.538;13.266;2023-04-24T11:37:23;18.00;99.90
17687;DHT22;8962;52.538;13.266;2023-04-24T11:39:53;17.90;99.90
17687;DHT22;8962;52.538;13.266;2023-04-24T11:42:21;18.00;99.90
17687;DHT22;8962;52.538;13.266;2023-04-24T11:44:52;18.10;99.90
17687;DHT22;8962;52.538;13.266;2023-04-24T11:47:28;18.10;99.90
17687;DHT22;8962;52.538;13.266;2023-04-24T11:49:56;18.10;99.90
17687;DHT22;8962;52.538;13.266;2023-04-24T11:52:25;18.30;99.90
17687;DHT22;8962;52.538;13.266;2023-04-24T11:54:52;18.70;99.90
17687;DHT22;8962;52.538;13.266;2023-04-24T11:57:20;19.70;99.90
17687;DHT22;8962;52.538;13.266;2023-04-24T11:59:48;21.40;99.90
17687;DHT22;8962;52.538;13.266;2023-04-24T12:02:23;22.80;99.90
17687;DHT22;8962;52.538;13.266;2023-04-24T12:04:52;23.20;99.90
17687;DHT22;8962;52.538;13.266;2023-04-24T12:07:19;22.50;99.90
17687;DHT22;8962;52.538;13.266;2023-04-24T12:09:54;21.90;99.90
17687;DHT22;8962;52.538;13.266;2023-04-24T12:12:25;21.20;99.90
17687;DHT22;8962;52.538;13.266;2023-04-24T12:14:54;20.50;99.90
17687;DHT22;8962;52.538;13.266;2023-04-24T12:17:27;20.00;99.90
17687;DHT22;8962;52.538;13.266;2023-04-24T12:19:59;19.80;99.90
17687;DHT22;8962;52.538;13.266;2023-04-24T12:22:28;19.60;99.90
17687;DHT22;8962;52.538;13.266;2023-04-24T12:24:57;19.30;99.90
17687;DHT22;8962;52.538;13.266;2023-04-24T12:27:25;19.40;99.90
17687;DHT22;8962;52.538;13.266;2023-04-24T12:29:53;19.30;99.90
17687;DHT22;8962;52.538;13.266;2023-04-24T12:32:21;19.10;99.90
17687;DHT22;8962;52.538;13.266;2023-04-24T12:34:51;18.90;99.90
17687;DHT22;8962;52.538;13.266;2023-04-24T12:37:18;18.50;99.90
17687;DHT22;8962;52.538;13.266;2023-04-24T12:40:08;18.30;99.90
17687;DHT22;8962;52.538;13.266;2023-04-24T12:42:45;18.10;99.90
17687;DHT22;8962;52.538;13.266;2023-04-24T12:45:13;17.70;99.90
17687;DHT22;8962;52.538;13.266;2023-04-24T12:47:42;17.40;99.90
17687;DHT22;8962;52.538;13.266;2023-04-24T12:50:14;17.50;99.90
17687;DHT22;8962;52.538;13.266;2023-04-24T12:52:42;18.10;99.90
17687;DHT22;8962;52.538;13.266;2023-04-24T12:55:11;19.80;99.90
17687;DHT22;8962;52.538;13.266;2023-04-24T12:57:40;20.90;99.90
17687;DHT22;8962;52.538;13.266;2023-04-24T13:00:08;22.90;98.80
17687;DHT22;8962;52.538;13.266;2023-04-24T13:02:37;23.00;95.00
17687;DHT22;8962;52.538;13.266;2023-04-24T13:05:05;21.70;96.50
17687;DHT22;8962;52.538;13.266;2023-04-24T13:07:34;21.10;99.70
17687;DHT22;8962;52.538;13.266;2023-04-24T13:10:01;20.30;99.90
17687;DHT22;8962;52.538;13.266;2023-04-24T13:12:28;20.30;99.90
17687;DHT22;8962;52.538;13.266;2023-04-24T13:14:58;20.20;99.90
17687;DHT22;8962;52.538;13.266;2023-04-24T13:17:25;19.70;99.90
17687;DHT22;8962;52.538;13.266;2023-04-24T13:19:55;20.70;99.90
17687;DHT22;8962;52.538;13.266;2023-04-24T13:22:22;21.60;99.90
17687;DHT22;8962;52.538;13.266;2023-04-24T13:24:52;21.50;99.90
17687;DHT22;8962;52.538;13.266;2023-04-24T13:27:19;21.60;99.90
17687;DHT22;8962;52.538;13.266;2023-04-24T13:29:46;21.20;99.90
17687;DHT22;8962;52.538;13.266;2023-04-24T13:32:14;20.50;99.90
17687;DHT22;8962;52.538;13.266;2023-04-24T13:34:42;21.50;99.90
17687;DHT22;8962;52.538;13.266;2023-04-24T13:37:09;22.00;96.90
17687;DHT22;8962;52.538;13.266;2023-04-24T13:39:36;21.60;97.00
17687;DHT22;8962;52.538;13.266;2023-04-24T13:42:05;20.60;96.90
17687;DHT22;8962;52.538;13.266;2023-04-24T13:44:34;20.20;97.30
17687;DHT22;8962;52.538;13.266;2023-04-24T13:47:03;19.90;98.90
17687;DHT22;8962;52.538;13.266;2023-04-24T13:49:32;19.50;99.90
17687;DHT22;8962;52.538;13.266;2023-04-24T13:51:59;19.20;99.90
17687;DHT22;8962;52.538;13.266;2023-04-24T13:54:26;18.80;99.90
17687;DHT22;8962;52.538;13.266;2023-04-24T13:56:57;18.50;99.90
17687;DHT22;8962;52.538;13.266;2023-04-24T13:59:26;18.40;99.90
17687;DHT22;8962;52.538;13.266;2023-04-24T14:01:53;18.50;99.90
17687;DHT22;8962;52.538;13.266;2023-04-24T14:04:20;18.60;99.90
17687;DHT22;8962;52.538;13.266;2023-04-24T14:06:47;18.60;99.90
17687;DHT22;8962;52.538;13.266;2023-04-24T14:09:14;18.30;99.90
17687;DHT22;8962;52.538;13.266;2023-04-24T14:11:42;18.30;99.90
17687;DHT22;8962;52.538;13.266;2023-04-24T14:14:09;18.60;99.90
17687;DHT22;8962;52.538;13.266;2023-04-24T14:16:38;19.10;99.90
17687;DHT22;8962;52.538;13.266;2023-04-24T14:19:06;19.90;95.50
17687;DHT22;8962;52.538;13.266;2023-04-24T14:21:33;21.40;81.40
17687;DHT22;8962;52.538;13.266;2023-04-24T14:24:00;22.70;65.00
17687;DHT22;8962;52.538;13.266;2023-04-24T14:26:28;22.60;59.40
17687;DHT22;8962;52.538;13.266;2023-04-24T14:28:56;21.70;60.90
17687;DHT22;8962;52.538;13.266;2023-04-24T14:31:24;21.20;62.80
17687;DHT22;8962;52.538;13.266;2023-04-24T14:33:58;21.70;63.10
17687;DHT22;8962;52.538;13.266;2023-04-24T14:36:25;22.50;57.70
17687;DHT22;8962;52.538;13.266;2023-04-24T14:38:58;22.00;58.90
17687;DHT22;8962;52.538;13.266;2023-04-24T14:41:35;21.40;61.80
17687;DHT22;8962;52.538;13.266;2023-04-24T14:44:03;21.80;58.40
17687;DHT22;8962;52.538;13.266;2023-04-24T14:46:31;22.80;53.80
17687;DHT22;8962;52.538;13.266;2023-04-24T14:48:59;22.00;53.40
17687;DHT22;8962;52.538;13.266;2023-04-24T14:51:26;21.00;56.90
17687;DHT22;8962;52.538;13.266;2023-04-24T14:53:56;21.20;57.40
17687;DHT22;8962;52.538;13.266;2023-04-24T14:56:24;22.00;55.20
17687;DHT22;8962;52.538;13.266;2023-04-24T14:58:51;22.00;53.60
17687;DHT22;8962;52.538;13.266;2023-04-24T15:01:18;21.70;54.50
17687;DHT22;8962;52.538;13.266;2023-04-24T15:03:45;20.70;57.80
17687;DHT22;8962;52.538;13.266;2023-04-24T15:06:14;19.60;61.90
17687;DHT22;8962;52.538;13.266;2023-04-24T15:08:41;19.30;66.50
17687;DHT22;8962;52.538;13.266;2023-04-24T15:11:09;20.60;63.90
17687;DHT22;8962;52.538;13.266;2023-04-24T15:13:36;21.60;58.40
17687;DHT22;8962;52.538;13.266;2023-04-24T15:16:04;21.30;57.50
17687;DHT22;8962;52.538;13.266;2023-04-24T15:18:32;20.80;58.60
17687;DHT22;8962;52.538;13.266;2023-04-24T15:21:00;20.20;60.80
17687;DHT22;8962;52.538;13.266;2023-04-24T15:23:29;19.10;63.50
17687;DHT22;8962;52.538;13.266;2023-04-24T15:25:56;18.50;66.70
17687;DHT22;8962;52.538;13.266;2023-04-24T15:28:24;17.90;71.30
17687;DHT22;8962;52.538;13.266;2023-04-24T15:30:51;17.60;75.70
17687;DHT22;8962;52.538;13.266;2023-04-24T15:33:18;17.30;78.50
17687;DHT22;8962;52.538;13.266;2023-04-24T15:35:46;17.10;82.00
17687;DHT22;8962;52.538;13.266;2023-04-24T15:38:14;17.10;86.20
17687;DHT22;8962;52.538;13.266;2023-04-24T15:40:42;17.10;88.30
17687;DHT22;8962;52.538;13.266;2023-04-24T15:43:10;17.20;90.00
17687;DHT22;8962;52.538;13.266;2023-04-24T15:45:38;17.30;90.90